Startpagina
METAR-TAF:

METAR-TAF

Vliegvelden :

Asunción, Paraguay

Aeropuerto Internacional Silvio Pettirossi

breedte: 25-16S, lengte: 057-38W, hoogte: 101 m

Actueel weer

Dit bericht is 53 minuten geleden gemaakt, om 17:00 UTC
Wind 18 kt uit het zuiden, variërend tussen het zuidzuidoosten en het zuidwesten
Temperatuur 29°C
Vochtigheid 48%
Druk 1007 hPa
Zicht 10 km of meer
Weinig wolken op 4000 ft

METAR: SGAS 181700Z 19018KT 150V220 9999 FEW040 29/17 Q1007

Tijdstip: 14:53 (17:53 UTC)

Verwachting

Dit bericht is 2 uur en het 23 minuten geleden gemaakt, om 15:30 UTC
Verwachting geldig van 18 om 18 UTC tot 19 om 18 UTC
Wind 15 kt uit het zuiden
Zicht 10 km of meer
geen wolken onder 1500 m en geen cumulonimbus

TAF: SGAS 181530Z 1818/1918 17015KT CAVOK TX29/1818Z TN14/1909Z

Waarnemingen en weersverwachtingen van meer dan 4000 vliegvelden (METAR en TAF).

De beschikbare stations zijn de gele en rode punten op de kaart.

Ga met uw muis naar het station om de naam te zien.

Klik dan om waarnemingen en weersverwachtingen te zien.

kaart wijzigen: klik op de groene knoppen met een zwart kruis om in te zoomen, op de groene knop met een streepje om uit te zoomen of op de groene pijlen voor aangrenzende kaarten.


METAR-TAF: